createdAt,value
2023-02-09T00:02:13.439Z,29.13
2023-02-09T00:05:01.784Z,29.20
2023-02-09T00:07:50.027Z,28.47
2023-02-09T00:10:39.906Z,27.83
2023-02-09T00:13:27.949Z,28.80
2023-02-09T00:16:17.543Z,29.00
2023-02-09T00:19:06.058Z,28.30
2023-02-09T00:21:54.297Z,27.93
2023-02-09T00:24:42.535Z,27.40
2023-02-09T00:27:32.304Z,27.33
2023-02-09T00:30:20.868Z,28.50
2023-02-09T00:33:10.403Z,27.93
2023-02-09T00:35:58.623Z,25.00
2023-02-09T00:38:46.849Z,27.90
2023-02-09T00:41:52.731Z,26.33
2023-02-09T00:44:41.714Z,25.13
2023-02-09T00:47:29.921Z,25.40
2023-02-09T00:50:19.667Z,25.73
2023-02-09T00:53:07.881Z,27.60
2023-02-09T00:55:56.131Z,26.07
2023-02-09T00:58:44.307Z,26.07
2023-02-09T01:01:32.661Z,24.70
2023-02-09T01:04:21.000Z,25.03
2023-02-09T01:07:10.601Z,25.73
2023-02-09T01:09:59.986Z,24.03
2023-02-09T01:12:48.229Z,26.40
2023-02-09T01:15:36.423Z,24.30
2023-02-09T01:18:24.681Z,24.60
2023-02-09T01:21:13.666Z,23.47
2023-02-09T01:24:03.258Z,23.10
2023-02-09T01:26:51.509Z,23.97
2023-02-09T01:29:39.969Z,23.33
2023-02-09T01:32:28.249Z,23.53
2023-02-09T01:35:16.460Z,24.23
2023-02-09T01:38:04.653Z,24.40
2023-02-09T01:40:54.266Z,22.00
2023-02-09T01:43:50.886Z,23.80
2023-02-09T01:46:40.112Z,20.37
2023-02-09T01:49:29.360Z,21.83
2023-02-09T01:52:21.362Z,21.83
2023-02-09T01:55:14.136Z,22.00
2023-02-09T01:58:08.263Z,22.07
2023-02-09T02:00:58.473Z,21.27
2023-02-09T02:03:47.972Z,21.33
2023-02-09T02:06:36.637Z,20.87
2023-02-09T02:09:25.882Z,21.00
2023-02-09T02:12:16.530Z,20.92
2023-02-09T02:15:07.036Z,22.60
2023-02-09T02:18:18.690Z,21.65
2023-02-09T02:21:43.906Z,19.67
2023-02-09T02:25:04.876Z,19.83
2023-02-09T02:28:10.536Z,20.58
2023-02-09T02:31:21.264Z,20.43
2023-02-09T02:34:16.448Z,19.25
2023-02-09T02:37:15.842Z,18.83
2023-02-09T02:40:11.626Z,19.57
2023-02-09T02:43:10.169Z,19.07
2023-02-09T02:46:03.278Z,18.90
2023-02-09T02:48:56.225Z,19.17
2023-02-09T02:51:49.544Z,19.10
2023-02-09T02:54:42.147Z,18.10
2023-02-09T02:57:33.639Z,19.27
2023-02-09T03:00:27.155Z,18.50
2023-02-09T03:03:17.788Z,18.23
2023-02-09T03:06:07.392Z,13.75
2023-02-09T03:08:58.689Z,19.77
2023-02-09T03:11:52.481Z,19.60
2023-02-09T03:14:46.970Z,18.77
2023-02-09T03:17:42.634Z,17.63
2023-02-09T03:20:38.903Z,17.77
2023-02-09T03:23:34.043Z,17.97
2023-02-09T03:26:26.815Z,17.97
2023-02-09T03:29:16.665Z,18.97
2023-02-09T03:32:05.220Z,18.33
2023-02-09T03:34:54.101Z,18.07
2023-02-09T03:37:42.392Z,18.50
2023-02-09T03:40:30.613Z,18.90
2023-02-09T03:43:20.161Z,17.50
2023-02-09T03:46:08.410Z,17.00
2023-02-09T03:48:56.622Z,18.13
2023-02-09T03:51:44.842Z,17.57
2023-02-09T03:54:34.313Z,17.57
2023-02-09T03:57:22.535Z,18.23
2023-02-09T04:00:13.808Z,17.07
2023-02-09T04:03:02.023Z,17.27
2023-02-09T04:05:50.228Z,17.97
2023-02-09T04:08:38.624Z,17.20
2023-02-09T04:11:27.306Z,17.60
2023-02-09T04:14:16.214Z,16.47
2023-02-09T04:17:05.786Z,17.80
2023-02-09T04:19:54.012Z,16.70
2023-02-09T04:22:42.178Z,16.83
2023-02-09T04:25:30.394Z,18.33
2023-02-09T04:28:18.643Z,17.17
2023-02-09T04:31:07.503Z,17.27
2023-02-09T04:33:57.085Z,17.37
2023-02-09T04:36:45.578Z,16.60
2023-02-09T04:39:33.753Z,16.23
2023-02-09T04:42:21.974Z,17.13
2023-02-09T04:45:10.630Z,16.63
2023-02-09T04:47:58.863Z,17.33
2023-02-09T04:50:48.754Z,18.20
2023-02-09T04:53:37.069Z,17.63
2023-02-09T04:56:25.299Z,17.17
2023-02-09T04:59:31.234Z,17.53
2023-02-09T05:02:19.450Z,17.90
2023-02-09T05:05:07.892Z,17.53
2023-02-09T05:07:57.527Z,17.33
2023-02-09T05:10:45.983Z,17.60
2023-02-09T05:13:34.488Z,19.20
2023-02-09T05:16:22.749Z,16.67
2023-02-09T05:19:10.998Z,17.33
2023-02-09T05:21:59.216Z,17.97
2023-02-09T05:24:48.776Z,17.53
2023-02-09T05:27:37.896Z,18.30
2023-02-09T05:30:26.638Z,16.83
2023-02-09T05:33:14.863Z,18.70
2023-02-09T05:36:08.288Z,16.70
2023-02-09T05:38:56.497Z,16.87
2023-02-09T05:42:03.560Z,17.17
2023-02-09T05:44:52.533Z,16.20
2023-02-09T05:47:40.804Z,16.40
2023-02-09T05:50:29.129Z,18.23
2023-02-09T05:53:17.492Z,16.20
2023-02-09T05:56:06.374Z,15.10
2023-02-09T05:58:55.918Z,17.57
2023-02-09T06:01:44.150Z,16.57
2023-02-09T06:04:32.607Z,19.47
2023-02-09T06:07:21.184Z,17.13
2023-02-09T06:10:10.035Z,17.20
2023-02-09T06:12:58.268Z,16.33
2023-02-09T06:15:47.871Z,17.07
2023-02-09T06:18:36.316Z,16.63
2023-02-09T06:21:24.555Z,17.63
2023-02-09T06:24:13.850Z,16.87
2023-02-09T06:27:02.065Z,15.93
2023-02-09T06:29:50.323Z,16.47
2023-02-09T06:32:39.894Z,15.90
2023-02-09T06:35:28.148Z,16.70
2023-02-09T06:38:16.356Z,16.37
2023-02-09T06:41:04.618Z,16.67
2023-02-09T06:43:52.988Z,17.33
2023-02-09T06:46:41.212Z,17.13
2023-02-09T06:49:30.742Z,16.63
2023-02-09T06:52:19.285Z,17.00
2023-02-09T06:55:08.282Z,16.37
2023-02-09T06:57:56.972Z,17.67
2023-02-09T07:00:46.363Z,17.57
2023-02-09T07:03:35.180Z,16.93
2023-02-09T07:06:24.726Z,16.63
2023-02-09T07:09:12.909Z,16.53
2023-02-09T07:12:01.553Z,17.23
2023-02-09T07:14:49.753Z,17.13
2023-02-09T07:17:38.044Z,16.70
2023-02-09T07:20:26.415Z,15.77
2023-02-09T07:23:15.945Z,17.33
2023-02-09T07:26:04.829Z,16.83
2023-02-09T07:28:53.096Z,17.57
2023-02-09T07:31:41.414Z,16.30
2023-02-09T07:34:29.692Z,16.83
2023-02-09T07:37:17.936Z,16.27
2023-02-09T07:40:08.484Z,16.70
2023-02-09T07:42:56.711Z,14.07
2023-02-09T07:45:45.081Z,16.50
2023-02-09T07:48:34.190Z,15.33
2023-02-09T07:51:25.329Z,16.23
2023-02-09T07:57:04.174Z,14.90
2023-02-09T07:59:52.414Z,15.27
2023-02-09T08:02:40.814Z,15.57
2023-02-09T08:05:34.247Z,15.23
2023-02-09T08:08:22.448Z,16.80
2023-02-09T08:11:10.648Z,15.83
2023-02-09T08:14:05.105Z,15.20
2023-02-09T08:17:16.870Z,14.97
2023-02-09T08:20:08.753Z,14.47
2023-02-09T08:23:01.807Z,14.45
2023-02-09T08:25:51.624Z,14.82
2023-02-09T08:28:44.942Z,15.30
2023-02-09T08:31:34.836Z,15.25
2023-02-09T08:34:23.128Z,15.27
2023-02-09T08:37:11.326Z,14.98
2023-02-09T08:39:59.675Z,14.30
2023-02-09T08:42:47.914Z,13.85
2023-02-09T08:45:37.209Z,14.40
2023-02-09T08:48:26.841Z,14.52
2023-02-09T08:51:16.923Z,13.95
2023-02-09T08:54:05.164Z,15.10
2023-02-09T08:56:54.123Z,13.57
2023-02-09T08:59:42.335Z,14.18
2023-02-09T09:02:30.554Z,13.45
2023-02-09T09:05:20.181Z,13.65
2023-02-09T09:08:10.801Z,12.57
2023-02-09T09:10:59.653Z,14.30
2023-02-09T09:13:48.329Z,13.10
2023-02-09T09:16:36.586Z,12.63
2023-02-09T09:19:24.923Z,14.20
2023-02-09T09:22:14.475Z,12.90
2023-02-09T09:25:02.842Z,14.02
2023-02-09T09:27:51.046Z,12.38
2023-02-09T09:30:39.311Z,13.95
2023-02-09T09:33:27.537Z,13.93
2023-02-09T09:36:15.951Z,11.77
2023-02-09T09:39:05.654Z,12.75
2023-02-09T09:41:57.500Z,12.52
2023-02-09T09:44:47.408Z,12.90
2023-02-09T09:47:38.692Z,12.70
2023-02-09T09:50:30.695Z,12.88
2023-02-09T09:53:28.739Z,12.40
2023-02-09T09:56:21.180Z,13.13
2023-02-09T09:59:16.544Z,12.55
2023-02-09T10:02:23.547Z,12.52
2023-02-09T10:05:18.404Z,11.65
2023-02-09T10:08:14.849Z,11.55
2023-02-09T10:11:06.216Z,11.18
2023-02-09T10:13:58.448Z,10.48
2023-02-09T10:16:46.849Z,10.40
2023-02-09T10:19:35.080Z,17.13
2023-02-09T10:22:23.268Z,12.80
2023-02-09T10:25:37.369Z,11.38
2023-02-09T10:28:27.853Z,11.02
2023-02-09T10:31:25.104Z,9.52
2023-02-09T10:34:16.459Z,11.10
2023-02-09T10:40:11.320Z,11.90
2023-02-09T10:43:01.615Z,11.52
2023-02-09T10:45:55.030Z,12.07
2023-02-09T10:48:46.366Z,9.23
2023-02-09T10:54:24.904Z,10.18
2023-02-09T10:57:26.781Z,9.93
2023-02-09T11:00:29.751Z,10.00
2023-02-09T11:03:20.406Z,10.05
2023-02-09T11:06:16.729Z,9.57
2023-02-09T11:09:08.425Z,9.70
2023-02-09T11:11:56.949Z,9.77
2023-02-09T11:14:45.217Z,11.30
2023-02-09T11:17:37.414Z,9.40
2023-02-09T11:20:33.632Z,12.50
2023-02-09T11:23:37.038Z,9.40
2023-02-09T11:26:37.348Z,9.77
2023-02-09T11:29:30.852Z,9.65
2023-02-09T11:32:24.593Z,12.30
2023-02-09T11:35:14.785Z,8.85
2023-02-09T11:38:07.424Z,8.38
2023-02-09T11:40:58.840Z,8.80
2023-02-09T11:43:49.560Z,8.55
2023-02-09T11:46:38.461Z,7.70
2023-02-09T11:49:30.555Z,9.00
2023-02-09T11:52:26.204Z,11.27
2023-02-09T11:55:25.816Z,8.52
2023-02-09T11:58:32.908Z,8.35
2023-02-09T12:01:30.809Z,10.50
2023-02-09T12:04:22.285Z,7.40
2023-02-09T12:07:18.834Z,6.80
2023-02-09T12:10:18.014Z,7.43
2023-02-09T12:13:14.712Z,7.15
2023-02-09T12:16:11.502Z,7.35
2023-02-09T12:19:00.108Z,7.88
2023-02-09T12:21:48.303Z,8.20
2023-02-09T12:24:40.736Z,7.78
2023-02-09T12:27:29.002Z,8.32
2023-02-09T12:30:54.661Z,7.28
2023-02-09T12:34:10.679Z,8.43
2023-02-09T12:37:18.885Z,7.35
2023-02-09T12:40:36.975Z,7.70
2023-02-09T12:43:30.772Z,6.63
2023-02-09T12:46:23.310Z,7.45
2023-02-09T12:49:21.244Z,8.15
2023-02-09T12:52:17.962Z,13.30
2023-02-09T12:55:18.037Z,7.55
2023-02-09T12:58:40.157Z,7.65
2023-02-09T13:02:01.726Z,7.43
2023-02-09T13:05:00.890Z,6.85
2023-02-09T13:07:54.293Z,7.05
2023-02-09T13:10:44.989Z,7.38
2023-02-09T13:13:47.154Z,7.65
2023-02-09T13:16:59.334Z,7.38
2023-02-09T13:20:18.991Z,7.22
2023-02-09T13:23:30.184Z,8.40
2023-02-09T13:26:22.129Z,8.18
2023-02-09T13:29:21.044Z,7.30
2023-02-09T13:32:20.398Z,7.50
2023-02-09T13:35:17.876Z,8.50
2023-02-09T13:38:16.740Z,7.97
2023-02-09T13:41:08.582Z,8.98
2023-02-09T13:43:56.820Z,9.13
2023-02-09T13:46:53.229Z,8.40
2023-02-09T13:49:41.749Z,8.65
2023-02-09T13:52:38.767Z,8.80
2023-02-09T13:55:31.822Z,9.27
2023-02-09T13:58:22.870Z,8.70
2023-02-09T14:01:17.327Z,8.73
2023-02-09T14:04:11.494Z,9.25
2023-02-09T14:07:04.472Z,8.73
2023-02-09T14:09:58.198Z,9.80
2023-02-09T14:12:55.821Z,9.48
2023-02-09T14:16:10.142Z,8.20
2023-02-09T14:18:59.746Z,9.35
2023-02-09T14:21:47.971Z,9.15
2023-02-09T14:24:44.730Z,9.02
2023-02-09T14:27:36.281Z,8.43
2023-02-09T14:30:27.135Z,8.65
2023-02-09T14:33:24.815Z,9.52
2023-02-09T14:36:23.645Z,8.65
2023-02-09T14:39:16.360Z,9.20
2023-02-09T14:42:18.208Z,9.43
2023-02-09T14:45:30.578Z,9.27
2023-02-09T14:48:21.383Z,9.30
2023-02-09T14:51:15.151Z,9.50
2023-02-09T14:54:03.429Z,9.32
2023-02-09T14:56:52.611Z,9.18
2023-02-09T14:59:41.055Z,9.48
2023-02-09T15:02:30.664Z,10.20
2023-02-09T15:05:19.574Z,17.08
2023-02-09T15:08:11.425Z,11.00
2023-02-09T15:11:02.065Z,10.38
2023-02-09T15:13:52.143Z,8.88
2023-02-09T15:16:40.428Z,12.43
2023-02-09T15:19:30.252Z,9.60
2023-02-09T15:22:19.426Z,9.13
2023-02-09T15:25:08.076Z,9.68
2023-02-09T15:27:59.117Z,8.70
2023-02-09T15:33:36.870Z,8.88
2023-02-09T15:36:27.880Z,9.32
2023-02-09T15:39:21.865Z,8.70
2023-02-09T15:42:33.271Z,8.93
2023-02-09T15:48:28.365Z,8.75
2023-02-09T15:51:17.738Z,8.63
2023-02-09T15:54:12.761Z,8.93
2023-02-09T15:57:01.747Z,9.18
2023-02-09T15:59:51.692Z,8.73
2023-02-09T16:02:39.977Z,8.52
2023-02-09T16:05:30.244Z,8.73
2023-02-09T16:08:21.111Z,8.88
2023-02-09T16:11:18.128Z,8.98
2023-02-09T16:14:14.688Z,9.43
2023-02-09T16:17:03.146Z,8.55
2023-02-09T16:19:51.429Z,8.38
2023-02-09T16:22:40.933Z,9.23
2023-02-09T16:25:30.826Z,9.05
2023-02-09T16:28:21.391Z,8.85
2023-02-09T16:31:11.135Z,8.25
2023-02-09T16:33:59.390Z,9.63
2023-02-09T16:36:48.726Z,9.80
2023-02-09T16:39:37.050Z,10.10
2023-02-09T16:42:26.302Z,10.10
2023-02-09T16:45:16.608Z,9.40
2023-02-09T16:48:05.799Z,10.03
2023-02-09T16:50:55.353Z,10.18
2023-02-09T16:53:46.445Z,10.27
2023-02-09T16:56:37.208Z,10.40
2023-02-09T16:59:29.263Z,10.48
2023-02-09T17:02:30.528Z,10.20
2023-02-09T17:05:21.179Z,8.93
2023-02-09T17:08:16.169Z,8.25
2023-02-09T17:11:05.907Z,9.63
2023-02-09T17:13:54.146Z,9.80
2023-02-09T17:16:49.544Z,10.15
2023-02-09T17:19:47.810Z,8.73
2023-02-09T17:22:36.550Z,9.23
2023-02-09T17:25:25.982Z,13.85
2023-02-09T17:28:14.518Z,12.63
2023-02-09T17:31:04.392Z,12.20
2023-02-09T17:33:54.491Z,11.20
2023-02-09T17:36:45.059Z,12.98
2023-02-09T17:39:33.343Z,11.98
2023-02-09T17:42:23.181Z,12.50
2023-02-09T17:45:21.530Z,12.10
2023-02-09T17:48:10.315Z,12.95
2023-02-09T17:51:00.561Z,12.68
2023-02-09T17:53:50.214Z,11.33
2023-02-09T17:56:38.501Z,10.65
2023-02-09T17:59:26.735Z,9.85
2023-02-09T18:02:16.694Z,10.23
2023-02-09T18:05:05.653Z,13.77
2023-02-09T18:07:54.605Z,14.25
2023-02-09T18:10:44.506Z,14.45
2023-02-09T18:13:32.743Z,10.98
2023-02-09T18:16:20.969Z,10.65
2023-02-09T18:19:09.494Z,11.48
2023-02-09T18:21:59.774Z,12.45
2023-02-09T18:24:48.102Z,12.50
2023-02-09T18:27:37.671Z,11.68
2023-02-09T18:30:28.674Z,11.07
2023-02-09T18:33:17.347Z,10.35
2023-02-09T18:36:07.588Z,10.10
2023-02-09T18:38:55.796Z,10.25
2023-02-09T18:41:46.350Z,10.05
2023-02-09T18:44:35.960Z,10.73
2023-02-09T18:47:24.475Z,11.68
2023-02-09T18:50:16.558Z,11.07
2023-02-09T18:53:04.969Z,11.38
2023-02-09T18:55:54.829Z,10.32
2023-02-09T18:58:43.053Z,10.57
2023-02-09T19:01:32.867Z,10.70
2023-02-09T19:04:21.120Z,10.05
2023-02-09T19:07:12.338Z,10.23
2023-02-09T19:12:49.010Z,12.88
2023-02-09T19:15:39.706Z,11.23
2023-02-09T19:18:29.433Z,9.90
2023-02-09T19:21:18.029Z,10.70
2023-02-09T19:24:06.621Z,11.60
2023-02-09T19:26:55.993Z,11.63
2023-02-09T19:29:44.360Z,12.68
2023-02-09T19:32:32.893Z,15.02
2023-02-09T19:35:23.086Z,21.83
2023-02-09T19:38:11.351Z,23.35
2023-02-09T19:41:10.463Z,32.78
2023-02-09T19:43:59.657Z,22.33
2023-02-09T19:46:48.105Z,13.38
2023-02-09T19:49:36.434Z,13.70
2023-02-09T19:52:27.615Z,15.13
2023-02-09T19:58:04.385Z,16.63
2023-02-09T20:00:53.553Z,18.00
2023-02-09T20:03:41.898Z,15.80
2023-02-09T20:06:31.094Z,14.30
2023-02-09T20:09:20.888Z,13.77
2023-02-09T20:12:09.438Z,15.50
2023-02-09T20:14:57.638Z,12.65
2023-02-09T20:20:42.044Z,11.73
2023-02-09T20:26:22.751Z,11.48
2023-02-09T20:29:11.260Z,11.48
2023-02-09T20:31:59.553Z,11.25
2023-02-09T20:34:47.797Z,11.20
2023-02-09T20:37:36.067Z,11.52
2023-02-09T20:40:24.525Z,12.13
2023-02-09T20:43:31.736Z,12.20
2023-02-09T20:46:39.421Z,12.25
2023-02-09T20:49:31.264Z,11.93
2023-02-09T20:52:19.504Z,11.15
2023-02-09T20:55:08.023Z,11.23
2023-02-09T20:57:56.262Z,12.05
2023-02-09T21:00:45.877Z,11.23
2023-02-09T21:03:34.109Z,11.02
2023-02-09T21:06:22.654Z,11.93
2023-02-09T21:09:15.689Z,11.02
2023-02-09T21:12:03.889Z,10.73
2023-02-09T21:14:52.205Z,12.07
2023-02-09T21:17:47.512Z,10.82
2023-02-09T21:20:36.717Z,11.13
2023-02-09T21:23:24.957Z,24.58
2023-02-09T21:26:16.039Z,21.85
2023-02-09T21:29:04.256Z,24.80
2023-02-09T21:31:52.646Z,20.08
2023-02-09T21:34:43.350Z,20.10
2023-02-09T21:37:32.477Z,17.75
2023-02-09T21:40:21.127Z,17.35
2023-02-09T21:43:09.387Z,11.73
2023-02-09T21:45:57.857Z,11.23
2023-02-09T21:48:46.333Z,11.43
2023-02-09T21:51:36.131Z,10.63
2023-02-09T21:54:25.842Z,10.40
2023-02-09T21:57:15.145Z,11.10
2023-02-09T22:00:06.465Z,10.45
2023-02-09T22:02:55.543Z,11.05
2023-02-09T22:05:44.101Z,10.40
2023-02-09T22:08:34.079Z,10.98
2023-02-09T22:11:22.463Z,11.18
2023-02-09T22:14:10.674Z,11.07
2023-02-09T22:16:59.004Z,10.68
2023-02-09T22:19:47.216Z,11.25
2023-02-09T22:22:35.409Z,12.20
2023-02-09T22:25:24.964Z,12.55
2023-02-09T22:28:13.828Z,12.15
2023-02-09T22:31:06.683Z,11.95
2023-02-09T22:33:55.357Z,12.93
2023-02-09T22:36:43.584Z,13.07
2023-02-09T22:39:31.979Z,12.18
2023-02-09T22:42:21.570Z,11.68
2023-02-09T22:45:10.579Z,12.80
2023-02-09T22:47:58.819Z,12.70
2023-02-09T22:50:47.036Z,12.35
2023-02-09T22:53:35.730Z,13.38
2023-02-09T22:56:24.279Z,12.32
2023-02-09T22:59:14.969Z,12.15
2023-02-09T23:02:03.196Z,12.90
2023-02-09T23:04:51.402Z,13.07
2023-02-09T23:07:39.641Z,13.02
2023-02-09T23:10:27.817Z,13.23
2023-02-09T23:13:16.018Z,12.40
2023-02-09T23:16:10.264Z,13.38
2023-02-09T23:19:02.373Z,12.15
2023-02-09T23:21:52.352Z,13.05
2023-02-09T23:24:40.683Z,13.38
2023-02-09T23:27:28.886Z,13.63
2023-02-09T23:30:17.404Z,12.77
2023-02-09T23:33:06.941Z,13.68
2023-02-09T23:35:55.153Z,13.13
2023-02-09T23:38:43.857Z,13.65
2023-02-09T23:41:32.406Z,15.75
2023-02-09T23:44:21.463Z,14.35
2023-02-09T23:47:09.650Z,15.98
2023-02-09T23:49:59.234Z,15.77
2023-02-09T23:52:47.446Z,15.27
2023-02-09T23:55:35.690Z,15.38
2023-02-09T23:58:23.885Z,15.50
